sensor_id;sensor_type;location;lat;lon;timestamp;P1;durP1;ratioP1;P2;durP2;ratioP2
37445;SDS011;23307;51.136;14.942;2022-07-19T00:01:23;3.30;;;2.47;;
37445;SDS011;23307;51.136;14.942;2022-07-19T00:03:48;2.80;;;2.45;;
37445;SDS011;23307;51.136;14.942;2022-07-19T00:06:14;4.45;;;2.50;;
37445;SDS011;23307;51.136;14.942;2022-07-19T00:08:39;2.83;;;2.45;;
37445;SDS011;23307;51.136;14.942;2022-07-19T00:11:05;4.00;;;2.28;;
37445;SDS011;23307;51.136;14.942;2022-07-19T00:13:31;3.60;;;2.50;;
37445;SDS011;23307;51.136;14.942;2022-07-19T00:15:57;3.33;;;2.60;;
37445;SDS011;23307;51.136;14.942;2022-07-19T00:18:22;3.65;;;2.20;;
37445;SDS011;23307;51.136;14.942;2022-07-19T00:20:48;4.20;;;2.40;;
37445;SDS011;23307;51.136;14.942;2022-07-19T00:23:14;4.05;;;2.00;;
37445;SDS011;23307;51.136;14.942;2022-07-19T00:25:39;6.95;;;2.17;;
37445;SDS011;23307;51.136;14.942;2022-07-19T00:28:04;4.60;;;1.90;;
37445;SDS011;23307;51.136;14.942;2022-07-19T00:30:30;5.03;;;2.67;;
37445;SDS011;23307;51.136;14.942;2022-07-19T00:32:56;3.67;;;2.20;;
37445;SDS011;23307;51.136;14.942;2022-07-19T00:35:21;3.83;;;2.35;;
37445;SDS011;23307;51.136;14.942;2022-07-19T00:37:47;4.80;;;2.28;;
37445;SDS011;23307;51.136;14.942;2022-07-19T00:40:13;3.15;;;2.30;;
37445;SDS011;23307;51.136;14.942;2022-07-19T00:42:44;4.35;;;2.10;;
37445;SDS011;23307;51.136;14.942;2022-07-19T00:45:10;2.85;;;1.80;;
37445;SDS011;23307;51.136;14.942;2022-07-19T00:47:35;2.30;;;1.90;;
37445;SDS011;23307;51.136;14.942;2022-07-19T00:50:01;4.72;;;1.75;;
37445;SDS011;23307;51.136;14.942;2022-07-19T00:52:28;3.33;;;2.03;;
37445;SDS011;23307;51.136;14.942;2022-07-19T00:54:55;4.85;;;2.00;;
37445;SDS011;23307;51.136;14.942;2022-07-19T00:57:22;2.17;;;1.63;;
37445;SDS011;23307;51.136;14.942;2022-07-19T00:59:48;2.28;;;1.80;;
37445;SDS011;23307;51.136;14.942;2022-07-19T01:02:16;6.10;;;1.80;;
37445;SDS011;23307;51.136;14.942;2022-07-19T01:04:43;3.17;;;1.88;;
37445;SDS011;23307;51.136;14.942;2022-07-19T01:07:09;2.90;;;1.75;;
37445;SDS011;23307;51.136;14.942;2022-07-19T01:09:38;2.30;;;1.70;;
37445;SDS011;23307;51.136;14.942;2022-07-19T01:12:05;4.25;;;1.70;;
37445;SDS011;23307;51.136;14.942;2022-07-19T01:14:31;2.67;;;1.85;;
37445;SDS011;23307;51.136;14.942;2022-07-19T01:16:58;2.13;;;1.75;;
37445;SDS011;23307;51.136;14.942;2022-07-19T01:19:24;4.60;;;1.90;;
37445;SDS011;23307;51.136;14.942;2022-07-19T01:21:50;2.90;;;1.70;;
37445;SDS011;23307;51.136;14.942;2022-07-19T01:24:15;3.63;;;1.83;;
37445;SDS011;23307;51.136;14.942;2022-07-19T01:26:41;3.17;;;1.63;;
37445;SDS011;23307;51.136;14.942;2022-07-19T01:29:06;2.30;;;1.55;;
37445;SDS011;23307;51.136;14.942;2022-07-19T01:31:32;2.72;;;1.67;;
37445;SDS011;23307;51.136;14.942;2022-07-19T01:33:57;3.08;;;1.83;;
37445;SDS011;23307;51.136;14.942;2022-07-19T01:36:23;3.70;;;1.70;;
37445;SDS011;23307;51.136;14.942;2022-07-19T01:38:48;3.15;;;1.80;;
37445;SDS011;23307;51.136;14.942;2022-07-19T01:41:14;1.98;;;1.63;;
37445;SDS011;23307;51.136;14.942;2022-07-19T01:43:39;3.95;;;1.83;;
37445;SDS011;23307;51.136;14.942;2022-07-19T01:46:05;2.22;;;1.33;;
37445;SDS011;23307;51.136;14.942;2022-07-19T01:48:30;2.25;;;1.50;;
37445;SDS011;23307;51.136;14.942;2022-07-19T01:50:56;3.47;;;1.40;;
37445;SDS011;23307;51.136;14.942;2022-07-19T01:53:23;3.00;;;1.60;;
37445;SDS011;23307;51.136;14.942;2022-07-19T01:55:48;2.50;;;1.75;;
37445;SDS011;23307;51.136;14.942;2022-07-19T01:58:14;3.85;;;1.42;;
37445;SDS011;23307;51.136;14.942;2022-07-19T02:00:39;2.78;;;1.70;;
37445;SDS011;23307;51.136;14.942;2022-07-19T02:03:05;2.58;;;1.73;;
37445;SDS011;23307;51.136;14.942;2022-07-19T02:05:30;5.07;;;1.55;;
37445;SDS011;23307;51.136;14.942;2022-07-19T02:07:56;3.80;;;1.80;;
37445;SDS011;23307;51.136;14.942;2022-07-19T02:10:21;2.03;;;1.60;;
37445;SDS011;23307;51.136;14.942;2022-07-19T02:12:47;2.78;;;1.50;;
37445;SDS011;23307;51.136;14.942;2022-07-19T02:15:12;3.67;;;1.60;;
37445;SDS011;23307;51.136;14.942;2022-07-19T02:17:38;2.03;;;1.42;;
37445;SDS011;23307;51.136;14.942;2022-07-19T02:20:04;3.55;;;1.60;;
37445;SDS011;23307;51.136;14.942;2022-07-19T02:22:30;3.00;;;1.38;;
37445;SDS011;23307;51.136;14.942;2022-07-19T02:24:56;1.40;;;1.30;;
37445;SDS011;23307;51.136;14.942;2022-07-19T02:27:21;3.95;;;1.90;;
37445;SDS011;23307;51.136;14.942;2022-07-19T02:29:47;6.15;;;1.80;;
37445;SDS011;23307;51.136;14.942;2022-07-19T02:32:13;2.50;;;1.40;;
37445;SDS011;23307;51.136;14.942;2022-07-19T02:34:39;3.00;;;1.83;;
37445;SDS011;23307;51.136;14.942;2022-07-19T02:37:05;4.57;;;1.80;;
37445;SDS011;23307;51.136;14.942;2022-07-19T02:39:30;3.28;;;1.70;;
37445;SDS011;23307;51.136;14.942;2022-07-19T02:41:56;1.77;;;1.60;;
37445;SDS011;23307;51.136;14.942;2022-07-19T02:44:21;3.17;;;1.80;;
37445;SDS011;23307;51.136;14.942;2022-07-19T02:46:47;2.22;;;1.58;;
37445;SDS011;23307;51.136;14.942;2022-07-19T02:49:13;3.00;;;1.50;;
37445;SDS011;23307;51.136;14.942;2022-07-19T02:51:38;3.97;;;1.50;;
37445;SDS011;23307;51.136;14.942;2022-07-19T02:54:04;5.25;;;1.73;;
37445;SDS011;23307;51.136;14.942;2022-07-19T02:56:29;1.73;;;1.45;;
37445;SDS011;23307;51.136;14.942;2022-07-19T02:58:55;3.75;;;1.75;;
37445;SDS011;23307;51.136;14.942;2022-07-19T03:01:20;2.58;;;1.50;;
37445;SDS011;23307;51.136;14.942;2022-07-19T03:03:46;3.10;;;1.40;;
37445;SDS011;23307;51.136;14.942;2022-07-19T03:06:16;2.08;;;1.58;;
37445;SDS011;23307;51.136;14.942;2022-07-19T03:08:43;4.65;;;1.98;;
37445;SDS011;23307;51.136;14.942;2022-07-19T03:11:09;2.38;;;1.65;;
37445;SDS011;23307;51.136;14.942;2022-07-19T03:13:35;3.13;;;1.73;;
37445;SDS011;23307;51.136;14.942;2022-07-19T03:16:01;2.50;;;1.60;;
37445;SDS011;23307;51.136;14.942;2022-07-19T03:18:27;3.92;;;1.58;;
37445;SDS011;23307;51.136;14.942;2022-07-19T03:20:52;1.67;;;1.30;;
37445;SDS011;23307;51.136;14.942;2022-07-19T03:23:19;3.13;;;1.80;;
37445;SDS011;23307;51.136;14.942;2022-07-19T03:25:45;2.92;;;1.60;;
37445;SDS011;23307;51.136;14.942;2022-07-19T03:28:10;3.53;;;1.65;;
37445;SDS011;23307;51.136;14.942;2022-07-19T03:30:36;2.58;;;1.73;;
37445;SDS011;23307;51.136;14.942;2022-07-19T03:33:01;3.15;;;1.83;;
37445;SDS011;23307;51.136;14.942;2022-07-19T03:35:27;2.75;;;1.70;;
37445;SDS011;23307;51.136;14.942;2022-07-19T03:37:52;3.08;;;1.77;;
37445;SDS011;23307;51.136;14.942;2022-07-19T03:40:18;2.67;;;1.85;;
37445;SDS011;23307;51.136;14.942;2022-07-19T03:42:44;4.50;;;1.45;;
37445;SDS011;23307;51.136;14.942;2022-07-19T03:45:09;3.30;;;1.90;;
37445;SDS011;23307;51.136;14.942;2022-07-19T03:47:35;2.47;;;1.70;;
37445;SDS011;23307;51.136;14.942;2022-07-19T03:50:02;4.10;;;1.90;;
37445;SDS011;23307;51.136;14.942;2022-07-19T03:52:28;3.92;;;1.70;;
37445;SDS011;23307;51.136;14.942;2022-07-19T03:54:54;2.10;;;1.40;;
37445;SDS011;23307;51.136;14.942;2022-07-19T03:57:19;2.47;;;1.70;;
37445;SDS011;23307;51.136;14.942;2022-07-19T03:59:45;2.08;;;1.60;;
37445;SDS011;23307;51.136;14.942;2022-07-19T04:02:10;1.90;;;1.50;;
37445;SDS011;23307;51.136;14.942;2022-07-19T04:04:36;4.70;;;1.75;;
37445;SDS011;23307;51.136;14.942;2022-07-19T04:07:01;4.13;;;1.70;;
37445;SDS011;23307;51.136;14.942;2022-07-19T04:09:27;2.10;;;1.65;;
37445;SDS011;23307;51.136;14.942;2022-07-19T04:11:53;2.22;;;1.60;;
37445;SDS011;23307;51.136;14.942;2022-07-19T04:14:18;2.50;;;1.30;;
37445;SDS011;23307;51.136;14.942;2022-07-19T04:16:44;1.88;;;1.50;;
37445;SDS011;23307;51.136;14.942;2022-07-19T04:19:09;3.05;;;1.83;;
37445;SDS011;23307;51.136;14.942;2022-07-19T04:21:35;3.72;;;1.90;;
37445;SDS011;23307;51.136;14.942;2022-07-19T04:24:01;3.58;;;1.58;;
37445;SDS011;23307;51.136;14.942;2022-07-19T04:26:26;1.48;;;1.38;;
37445;SDS011;23307;51.136;14.942;2022-07-19T04:28:52;6.82;;;1.70;;
37445;SDS011;23307;51.136;14.942;2022-07-19T04:31:17;3.03;;;1.30;;
37445;SDS011;23307;51.136;14.942;2022-07-19T04:33:43;2.90;;;1.60;;
37445;SDS011;23307;51.136;14.942;2022-07-19T04:36:08;4.50;;;1.60;;
37445;SDS011;23307;51.136;14.942;2022-07-19T04:38:34;4.28;;;1.33;;
37445;SDS011;23307;51.136;14.942;2022-07-19T04:40:59;3.60;;;1.63;;
37445;SDS011;23307;51.136;14.942;2022-07-19T04:43:26;3.42;;;1.30;;
37445;SDS011;23307;51.136;14.942;2022-07-19T04:45:51;3.28;;;1.42;;
37445;SDS011;23307;51.136;14.942;2022-07-19T04:48:17;2.55;;;1.35;;
37445;SDS011;23307;51.136;14.942;2022-07-19T04:50:42;2.88;;;1.52;;
37445;SDS011;23307;51.136;14.942;2022-07-19T04:53:08;2.50;;;1.40;;
37445;SDS011;23307;51.136;14.942;2022-07-19T04:55:34;2.25;;;1.67;;
37445;SDS011;23307;51.136;14.942;2022-07-19T04:58:01;4.35;;;1.52;;
37445;SDS011;23307;51.136;14.942;2022-07-19T05:00:27;2.15;;;1.63;;
37445;SDS011;23307;51.136;14.942;2022-07-19T05:02:53;2.50;;;1.50;;
37445;SDS011;23307;51.136;14.942;2022-07-19T05:05:20;3.38;;;1.60;;
37445;SDS011;23307;51.136;14.942;2022-07-19T05:07:45;3.55;;;1.60;;
37445;SDS011;23307;51.136;14.942;2022-07-19T05:10:11;4.72;;;1.40;;
37445;SDS011;23307;51.136;14.942;2022-07-19T05:12:37;5.90;;;1.63;;
37445;SDS011;23307;51.136;14.942;2022-07-19T05:15:04;2.42;;;1.58;;
37445;SDS011;23307;51.136;14.942;2022-07-19T05:17:30;3.67;;;1.50;;
37445;SDS011;23307;51.136;14.942;2022-07-19T05:19:55;4.32;;;1.67;;
37445;SDS011;23307;51.136;14.942;2022-07-19T05:22:21;2.80;;;1.40;;
37445;SDS011;23307;51.136;14.942;2022-07-19T05:24:49;2.22;;;1.45;;
37445;SDS011;23307;51.136;14.942;2022-07-19T05:27:14;1.85;;;1.60;;
37445;SDS011;23307;51.136;14.942;2022-07-19T05:29:40;7.30;;;1.60;;
37445;SDS011;23307;51.136;14.942;2022-07-19T05:32:05;6.45;;;1.70;;
37445;SDS011;23307;51.136;14.942;2022-07-19T05:34:31;2.75;;;1.58;;
37445;SDS011;23307;51.136;14.942;2022-07-19T05:36:57;4.40;;;1.50;;
37445;SDS011;23307;51.136;14.942;2022-07-19T05:39:22;1.70;;;1.50;;
37445;SDS011;23307;51.136;14.942;2022-07-19T05:41:48;2.95;;;1.48;;
37445;SDS011;23307;51.136;14.942;2022-07-19T05:44:13;3.83;;;1.60;;
37445;SDS011;23307;51.136;14.942;2022-07-19T05:46:39;3.88;;;1.58;;
37445;SDS011;23307;51.136;14.942;2022-07-19T05:49:08;5.18;;;1.30;;
37445;SDS011;23307;51.136;14.942;2022-07-19T05:51:35;1.77;;;1.30;;
37445;SDS011;23307;51.136;14.942;2022-07-19T05:54:01;4.13;;;1.65;;
37445;SDS011;23307;51.136;14.942;2022-07-19T05:56:27;2.65;;;1.73;;
37445;SDS011;23307;51.136;14.942;2022-07-19T05:58:53;3.40;;;1.42;;
37445;SDS011;23307;51.136;14.942;2022-07-19T06:01:19;4.13;;;1.30;;
37445;SDS011;23307;51.136;14.942;2022-07-19T06:03:52;2.33;;;1.50;;
37445;SDS011;23307;51.136;14.942;2022-07-19T06:06:20;3.67;;;1.45;;
37445;SDS011;23307;51.136;14.942;2022-07-19T06:08:47;2.38;;;1.30;;
37445;SDS011;23307;51.136;14.942;2022-07-19T06:11:13;2.83;;;1.50;;
37445;SDS011;23307;51.136;14.942;2022-07-19T06:13:40;2.10;;;1.48;;
37445;SDS011;23307;51.136;14.942;2022-07-19T06:16:06;2.67;;;1.60;;
37445;SDS011;23307;51.136;14.942;2022-07-19T06:18:32;1.98;;;1.40;;
37445;SDS011;23307;51.136;14.942;2022-07-19T06:21:03;3.45;;;1.60;;
37445;SDS011;23307;51.136;14.942;2022-07-19T06:23:29;6.70;;;1.83;;
37445;SDS011;23307;51.136;14.942;2022-07-19T06:25:55;4.82;;;1.60;;
37445;SDS011;23307;51.136;14.942;2022-07-19T06:28:21;4.13;;;1.42;;
37445;SDS011;23307;51.136;14.942;2022-07-19T06:30:47;3.63;;;1.52;;
37445;SDS011;23307;51.136;14.942;2022-07-19T06:33:12;2.03;;;1.33;;
37445;SDS011;23307;51.136;14.942;2022-07-19T06:35:39;5.78;;;1.58;;
37445;SDS011;23307;51.136;14.942;2022-07-19T06:38:05;2.00;;;1.30;;
37445;SDS011;23307;51.136;14.942;2022-07-19T06:40:30;3.00;;;1.50;;
37445;SDS011;23307;51.136;14.942;2022-07-19T06:42:56;3.10;;;1.30;;
37445;SDS011;23307;51.136;14.942;2022-07-19T06:45:21;5.50;;;1.50;;
37445;SDS011;23307;51.136;14.942;2022-07-19T06:47:47;1.70;;;1.20;;
37445;SDS011;23307;51.136;14.942;2022-07-19T06:50:12;4.05;;;1.40;;
37445;SDS011;23307;51.136;14.942;2022-07-19T06:52:38;3.53;;;1.52;;
37445;SDS011;23307;51.136;14.942;2022-07-19T06:55:04;3.85;;;1.33;;
37445;SDS011;23307;51.136;14.942;2022-07-19T06:57:30;3.65;;;1.38;;
37445;SDS011;23307;51.136;14.942;2022-07-19T06:59:55;3.22;;;1.50;;
37445;SDS011;23307;51.136;14.942;2022-07-19T07:02:21;3.30;;;1.98;;
37445;SDS011;23307;51.136;14.942;2022-07-19T07:04:46;4.88;;;1.55;;
37445;SDS011;23307;51.136;14.942;2022-07-19T07:07:12;4.15;;;1.40;;
37445;SDS011;23307;51.136;14.942;2022-07-19T07:09:38;2.80;;;1.52;;
37445;SDS011;23307;51.136;14.942;2022-07-19T07:12:04;2.33;;;1.30;;
37445;SDS011;23307;51.136;14.942;2022-07-19T07:14:29;1.95;;;1.30;;
37445;SDS011;23307;51.136;14.942;2022-07-19T07:16:55;2.85;;;1.40;;
37445;SDS011;23307;51.136;14.942;2022-07-19T07:19:20;2.55;;;1.40;;
37445;SDS011;23307;51.136;14.942;2022-07-19T07:21:46;3.05;;;1.60;;
37445;SDS011;23307;51.136;14.942;2022-07-19T07:24:11;3.28;;;1.40;;
37445;SDS011;23307;51.136;14.942;2022-07-19T07:26:37;3.13;;;1.55;;
37445;SDS011;23307;51.136;14.942;2022-07-19T07:29:02;3.88;;;1.50;;
37445;SDS011;23307;51.136;14.942;2022-07-19T07:31:28;3.40;;;1.30;;
37445;SDS011;23307;51.136;14.942;2022-07-19T07:33:53;4.10;;;1.40;;
37445;SDS011;23307;51.136;14.942;2022-07-19T07:36:19;2.60;;;1.40;;
37445;SDS011;23307;51.136;14.942;2022-07-19T07:38:44;4.07;;;1.45;;
37445;SDS011;23307;51.136;14.942;2022-07-19T07:41:10;4.93;;;1.50;;
37445;SDS011;23307;51.136;14.942;2022-07-19T07:43:36;2.03;;;1.60;;
37445;SDS011;23307;51.136;14.942;2022-07-19T07:46:01;2.22;;;1.55;;
37445;SDS011;23307;51.136;14.942;2022-07-19T07:48:27;3.30;;;1.42;;
37445;SDS011;23307;51.136;14.942;2022-07-19T07:50:53;2.75;;;1.35;;
37445;SDS011;23307;51.136;14.942;2022-07-19T07:53:19;3.15;;;1.38;;
37445;SDS011;23307;51.136;14.942;2022-07-19T07:55:44;3.42;;;1.60;;
37445;SDS011;23307;51.136;14.942;2022-07-19T07:58:11;2.42;;;1.60;;
37445;SDS011;23307;51.136;14.942;2022-07-19T08:00:37;2.55;;;1.40;;
37445;SDS011;23307;51.136;14.942;2022-07-19T08:03:04;2.38;;;1.25;;
37445;SDS011;23307;51.136;14.942;2022-07-19T08:05:30;3.42;;;1.83;;
37445;SDS011;23307;51.136;14.942;2022-07-19T08:07:57;2.55;;;1.40;;
37445;SDS011;23307;51.136;14.942;2022-07-19T08:10:24;4.53;;;1.40;;
37445;SDS011;23307;51.136;14.942;2022-07-19T08:12:52;2.97;;;1.50;;
37445;SDS011;23307;51.136;14.942;2022-07-19T08:15:17;9.70;;;2.00;;
37445;SDS011;23307;51.136;14.942;2022-07-19T08:17:44;1.48;;;1.25;;
37445;SDS011;23307;51.136;14.942;2022-07-19T08:20:09;4.43;;;1.40;;
37445;SDS011;23307;51.136;14.942;2022-07-19T08:22:35;3.70;;;1.65;;
37445;SDS011;23307;51.136;14.942;2022-07-19T08:25:01;3.80;;;1.35;;
37445;SDS011;23307;51.136;14.942;2022-07-19T08:27:27;3.25;;;1.40;;
37445;SDS011;23307;51.136;14.942;2022-07-19T08:29:53;2.55;;;1.40;;
37445;SDS011;23307;51.136;14.942;2022-07-19T08:32:18;2.05;;;1.50;;
37445;SDS011;23307;51.136;14.942;2022-07-19T08:34:44;4.57;;;1.58;;
37445;SDS011;23307;51.136;14.942;2022-07-19T08:37:09;6.38;;;1.70;;
37445;SDS011;23307;51.136;14.942;2022-07-19T08:39:35;2.10;;;1.50;;
37445;SDS011;23307;51.136;14.942;2022-07-19T08:42:00;3.55;;;1.30;;
37445;SDS011;23307;51.136;14.942;2022-07-19T08:44:26;1.88;;;1.48;;
37445;SDS011;23307;51.136;14.942;2022-07-19T08:46:53;2.35;;;1.55;;
37445;SDS011;23307;51.136;14.942;2022-07-19T08:49:19;2.67;;;1.30;;
37445;SDS011;23307;51.136;14.942;2022-07-19T08:51:46;2.17;;;1.33;;
37445;SDS011;23307;51.136;14.942;2022-07-19T08:54:13;3.38;;;1.30;;
37445;SDS011;23307;51.136;14.942;2022-07-19T08:56:39;3.55;;;1.40;;
37445;SDS011;23307;51.136;14.942;2022-07-19T08:59:24;1.95;;;1.23;;
37445;SDS011;23307;51.136;14.942;2022-07-19T09:01:49;4.03;;;1.50;;
37445;SDS011;23307;51.136;14.942;2022-07-19T09:04:16;2.15;;;1.33;;
37445;SDS011;23307;51.136;14.942;2022-07-19T09:06:53;4.05;;;1.50;;
37445;SDS011;23307;51.136;14.942;2022-07-19T09:09:21;3.05;;;1.40;;
37445;SDS011;23307;51.136;14.942;2022-07-19T09:11:52;2.22;;;1.17;;
37445;SDS011;23307;51.136;14.942;2022-07-19T09:14:20;4.05;;;1.67;;
37445;SDS011;23307;51.136;14.942;2022-07-19T09:16:54;4.13;;;1.73;;
37445;SDS011;23307;51.136;14.942;2022-07-19T09:19:26;1.77;;;1.50;;
37445;SDS011;23307;51.136;14.942;2022-07-19T09:21:55;2.30;;;1.50;;
37445;SDS011;23307;51.136;14.942;2022-07-19T09:24:26;1.92;;;1.45;;
37445;SDS011;23307;51.136;14.942;2022-07-19T09:26:54;5.28;;;1.40;;
37445;SDS011;23307;51.136;14.942;2022-07-19T09:29:20;5.97;;;1.50;;
37445;SDS011;23307;51.136;14.942;2022-07-19T09:32:03;3.25;;;1.52;;
37445;SDS011;23307;51.136;14.942;2022-07-19T09:34:31;1.40;;;1.20;;
37445;SDS011;23307;51.136;14.942;2022-07-19T09:37:06;2.50;;;1.27;;
37445;SDS011;23307;51.136;14.942;2022-07-19T09:39:40;3.05;;;1.48;;
37445;SDS011;23307;51.136;14.942;2022-07-19T09:42:10;2.72;;;1.60;;
37445;SDS011;23307;51.136;14.942;2022-07-19T09:44:44;4.13;;;1.52;;
37445;SDS011;23307;51.136;14.942;2022-07-19T09:47:11;3.65;;;1.58;;
37445;SDS011;23307;51.136;14.942;2022-07-19T09:49:36;3.58;;;1.50;;
37445;SDS011;23307;51.136;14.942;2022-07-19T09:52:02;3.88;;;1.48;;
37445;SDS011;23307;51.136;14.942;2022-07-19T09:54:28;6.93;;;1.65;;
37445;SDS011;23307;51.136;14.942;2022-07-19T09:56:56;4.72;;;1.30;;
37445;SDS011;23307;51.136;14.942;2022-07-19T09:59:23;2.35;;;1.45;;
37445;SDS011;23307;51.136;14.942;2022-07-19T10:01:51;1.83;;;1.42;;
37445;SDS011;23307;51.136;14.942;2022-07-19T10:04:18;2.20;;;1.42;;
37445;SDS011;23307;51.136;14.942;2022-07-19T10:06:46;3.35;;;1.60;;
37445;SDS011;23307;51.136;14.942;2022-07-19T10:09:13;4.07;;;1.42;;
37445;SDS011;23307;51.136;14.942;2022-07-19T10:11:41;4.68;;;1.98;;
37445;SDS011;23307;51.136;14.942;2022-07-19T10:14:08;2.42;;;1.60;;
37445;SDS011;23307;51.136;14.942;2022-07-19T10:19:29;2.67;;;1.38;;
37445;SDS011;23307;51.136;14.942;2022-07-19T10:22:04;2.03;;;1.40;;
37445;SDS011;23307;51.136;14.942;2022-07-19T10:32:26;2.72;;;1.48;;
37445;SDS011;23307;51.136;14.942;2022-07-19T10:34:57;3.00;;;1.60;;
37445;SDS011;23307;51.136;14.942;2022-07-19T10:37:44;3.15;;;1.40;;
37445;SDS011;23307;51.136;14.942;2022-07-19T10:40:12;2.00;;;1.33;;
37445;SDS011;23307;51.136;14.942;2022-07-19T10:43:02;4.22;;;1.45;;
37445;SDS011;23307;51.136;14.942;2022-07-19T10:45:33;4.22;;;1.70;;
37445;SDS011;23307;51.136;14.942;2022-07-19T10:47:59;1.85;;;1.17;;
37445;SDS011;23307;51.136;14.942;2022-07-19T10:50:46;3.42;;;1.52;;
37445;SDS011;23307;51.136;14.942;2022-07-19T10:59:33;5.57;;;1.60;;
37445;SDS011;23307;51.136;14.942;2022-07-19T11:02:01;2.40;;;1.60;;
37445;SDS011;23307;51.136;14.942;2022-07-19T11:04:32;3.20;;;1.50;;
37445;SDS011;23307;51.136;14.942;2022-07-19T11:09:58;4.97;;;1.80;;
37445;SDS011;23307;51.136;14.942;2022-07-19T11:12:25;3.60;;;1.40;;
37445;SDS011;23307;51.136;14.942;2022-07-19T11:14:59;4.30;;;1.50;;
37445;SDS011;23307;51.136;14.942;2022-07-19T11:17:27;2.35;;;1.48;;
37445;SDS011;23307;51.136;14.942;2022-07-19T11:19:57;2.35;;;1.60;;
37445;SDS011;23307;51.136;14.942;2022-07-19T11:22:23;3.83;;;1.60;;
37445;SDS011;23307;51.136;14.942;2022-07-19T11:24:49;4.97;;;1.63;;
37445;SDS011;23307;51.136;14.942;2022-07-19T11:27:15;1.88;;;1.58;;
37445;SDS011;23307;51.136;14.942;2022-07-19T11:29:58;2.28;;;1.40;;
37445;SDS011;23307;51.136;14.942;2022-07-19T11:32:24;2.70;;;1.60;;
37445;SDS011;23307;51.136;14.942;2022-07-19T11:34:57;3.45;;;1.50;;
37445;SDS011;23307;51.136;14.942;2022-07-19T11:37:29;2.17;;;1.38;;
37445;SDS011;23307;51.136;14.942;2022-07-19T11:39:56;1.73;;;1.40;;
37445;SDS011;23307;51.136;14.942;2022-07-19T11:42:42;1.65;;;1.20;;
37445;SDS011;23307;51.136;14.942;2022-07-19T11:45:13;2.75;;;1.35;;
37445;SDS011;23307;51.136;14.942;2022-07-19T11:47:44;1.73;;;1.40;;
37445;SDS011;23307;51.136;14.942;2022-07-19T11:50:12;2.63;;;1.33;;
37445;SDS011;23307;51.136;14.942;2022-07-19T11:52:46;1.48;;;1.27;;
37445;SDS011;23307;51.136;14.942;2022-07-19T11:55:19;2.63;;;1.40;;
37445;SDS011;23307;51.136;14.942;2022-07-19T11:57:52;3.90;;;1.55;;
37445;SDS011;23307;51.136;14.942;2022-07-19T12:00:20;2.45;;;1.63;;
37445;SDS011;23307;51.136;14.942;2022-07-19T12:02:49;1.80;;;1.30;;
37445;SDS011;23307;51.136;14.942;2022-07-19T12:05:21;4.13;;;1.45;;
37445;SDS011;23307;51.136;14.942;2022-07-19T12:07:47;2.83;;;1.40;;
37445;SDS011;23307;51.136;14.942;2022-07-19T12:12:57;2.15;;;1.40;;
37445;SDS011;23307;51.136;14.942;2022-07-19T12:15:23;3.40;;;1.30;;
37445;SDS011;23307;51.136;14.942;2022-07-19T12:17:55;2.58;;;1.60;;
37445;SDS011;23307;51.136;14.942;2022-07-19T12:20:22;3.42;;;1.50;;
37445;SDS011;23307;51.136;14.942;2022-07-19T12:22:47;2.35;;;1.55;;
37445;SDS011;23307;51.136;14.942;2022-07-19T12:25:13;3.47;;;1.60;;
37445;SDS011;23307;51.136;14.942;2022-07-19T12:27:39;2.63;;;1.50;;
37445;SDS011;23307;51.136;14.942;2022-07-19T12:30:06;2.70;;;1.35;;
37445;SDS011;23307;51.136;14.942;2022-07-19T12:32:42;3.83;;;1.45;;
37445;SDS011;23307;51.136;14.942;2022-07-19T12:35:11;2.80;;;1.40;;
37445;SDS011;23307;51.136;14.942;2022-07-19T12:37:43;2.70;;;1.38;;
37445;SDS011;23307;51.136;14.942;2022-07-19T12:40:20;2.45;;;1.35;;
37445;SDS011;23307;51.136;14.942;2022-07-19T12:42:55;2.28;;;1.60;;
37445;SDS011;23307;51.136;14.942;2022-07-19T12:47:57;1.67;;;1.50;;
37445;SDS011;23307;51.136;14.942;2022-07-19T12:50:24;4.32;;;1.30;;
37445;SDS011;23307;51.136;14.942;2022-07-19T12:52:57;4.00;;;1.70;;
37445;SDS011;23307;51.136;14.942;2022-07-19T12:55:24;1.58;;;1.20;;
37445;SDS011;23307;51.136;14.942;2022-07-19T12:57:52;3.17;;;1.40;;
37445;SDS011;23307;51.136;14.942;2022-07-19T13:00:19;3.72;;;1.50;;
37445;SDS011;23307;51.136;14.942;2022-07-19T13:02:47;1.80;;;1.60;;
37445;SDS011;23307;51.136;14.942;2022-07-19T13:05:13;3.42;;;1.80;;
37445;SDS011;23307;51.136;14.942;2022-07-19T13:07:39;5.22;;;1.70;;
37445;SDS011;23307;51.136;14.942;2022-07-19T13:10:05;2.88;;;1.55;;
37445;SDS011;23307;51.136;14.942;2022-07-19T13:12:32;6.22;;;1.80;;
37445;SDS011;23307;51.136;14.942;2022-07-19T13:14:57;4.18;;;1.60;;
37445;SDS011;23307;51.136;14.942;2022-07-19T13:17:23;3.05;;;1.83;;
37445;SDS011;23307;51.136;14.942;2022-07-19T13:19:48;3.67;;;1.95;;
37445;SDS011;23307;51.136;14.942;2022-07-19T13:22:14;3.30;;;1.70;;
37445;SDS011;23307;51.136;14.942;2022-07-19T13:24:39;2.78;;;1.45;;
37445;SDS011;23307;51.136;14.942;2022-07-19T13:27:05;3.10;;;1.50;;
37445;SDS011;23307;51.136;14.942;2022-07-19T13:29:30;3.35;;;1.67;;
37445;SDS011;23307;51.136;14.942;2022-07-19T13:31:56;2.50;;;1.58;;
37445;SDS011;23307;51.136;14.942;2022-07-19T13:34:23;4.15;;;1.50;;
37445;SDS011;23307;51.136;14.942;2022-07-19T13:36:49;3.78;;;1.50;;
37445;SDS011;23307;51.136;14.942;2022-07-19T13:39:15;4.05;;;1.27;;
37445;SDS011;23307;51.136;14.942;2022-07-19T13:41:40;5.05;;;1.80;;
37445;SDS011;23307;51.136;14.942;2022-07-19T13:44:06;5.00;;;1.50;;
37445;SDS011;23307;51.136;14.942;2022-07-19T13:46:32;3.35;;;1.60;;
37445;SDS011;23307;51.136;14.942;2022-07-19T13:48:58;3.15;;;1.73;;
37445;SDS011;23307;51.136;14.942;2022-07-19T13:51:24;3.70;;;1.50;;
37445;SDS011;23307;51.136;14.942;2022-07-19T13:53:49;2.88;;;1.50;;
37445;SDS011;23307;51.136;14.942;2022-07-19T13:56:17;3.15;;;1.50;;
37445;SDS011;23307;51.136;14.942;2022-07-19T13:58:43;2.40;;;1.40;;
37445;SDS011;23307;51.136;14.942;2022-07-19T14:01:10;1.60;;;1.50;;
37445;SDS011;23307;51.136;14.942;2022-07-19T14:03:36;2.15;;;1.35;;
37445;SDS011;23307;51.136;14.942;2022-07-19T14:06:01;2.90;;;1.50;;
37445;SDS011;23307;51.136;14.942;2022-07-19T14:08:27;2.63;;;1.60;;
37445;SDS011;23307;51.136;14.942;2022-07-19T14:10:53;2.63;;;1.30;;
37445;SDS011;23307;51.136;14.942;2022-07-19T14:13:18;4.97;;;1.50;;
37445;SDS011;23307;51.136;14.942;2022-07-19T14:15:44;3.47;;;1.40;;
37445;SDS011;23307;51.136;14.942;2022-07-19T14:18:10;3.70;;;1.52;;
37445;SDS011;23307;51.136;14.942;2022-07-19T14:20:36;3.75;;;1.77;;
37445;SDS011;23307;51.136;14.942;2022-07-19T14:23:04;5.00;;;1.60;;
37445;SDS011;23307;51.136;14.942;2022-07-19T14:25:29;2.63;;;1.40;;
37445;SDS011;23307;51.136;14.942;2022-07-19T14:27:55;2.97;;;1.50;;
37445;SDS011;23307;51.136;14.942;2022-07-19T14:30:20;2.17;;;1.40;;
37445;SDS011;23307;51.136;14.942;2022-07-19T14:32:46;2.85;;;1.48;;
37445;SDS011;23307;51.136;14.942;2022-07-19T14:35:11;2.00;;;1.50;;
37445;SDS011;23307;51.136;14.942;2022-07-19T14:37:37;2.72;;;1.60;;
37445;SDS011;23307;51.136;14.942;2022-07-19T14:40:02;2.60;;;1.60;;
37445;SDS011;23307;51.136;14.942;2022-07-19T14:42:29;1.67;;;1.45;;
37445;SDS011;23307;51.136;14.942;2022-07-19T14:44:57;2.85;;;1.70;;
37445;SDS011;23307;51.136;14.942;2022-07-19T14:47:23;1.85;;;1.55;;
37445;SDS011;23307;51.136;14.942;2022-07-19T14:49:49;4.13;;;1.70;;
37445;SDS011;23307;51.136;14.942;2022-07-19T14:52:14;2.65;;;1.60;;
37445;SDS011;23307;51.136;14.942;2022-07-19T14:54:40;4.97;;;1.90;;
37445;SDS011;23307;51.136;14.942;2022-07-19T14:57:06;2.60;;;1.50;;